createdAt,value
2023-05-02T00:02:02.695Z,5.50
2023-05-02T00:04:35.669Z,5.80
2023-05-02T00:07:09.424Z,4.73
2023-05-02T00:09:42.403Z,4.67
2023-05-02T00:12:14.773Z,5.03
2023-05-02T00:14:47.546Z,4.83
2023-05-02T00:17:21.924Z,5.80
2023-05-02T00:19:55.544Z,5.07
2023-05-02T00:22:29.118Z,5.10
2023-05-02T00:25:02.012Z,5.50
2023-05-02T00:27:38.420Z,5.40
2023-05-02T00:30:13.223Z,4.73
2023-05-02T00:32:45.717Z,5.27
2023-05-02T00:35:18.554Z,5.50
2023-05-02T00:37:50.947Z,5.25
2023-05-02T00:40:25.780Z,5.93
2023-05-02T00:42:58.610Z,5.30
2023-05-02T00:45:34.948Z,5.50
2023-05-02T00:48:08.135Z,5.47
2023-05-02T00:50:43.190Z,5.40
2023-05-02T00:53:16.417Z,5.67
2023-05-02T00:55:49.969Z,5.00
2023-05-02T00:58:23.747Z,5.07
2023-05-02T01:01:06.507Z,5.00
2023-05-02T01:03:48.713Z,5.17
2023-05-02T01:06:35.679Z,5.47
2023-05-02T01:09:24.583Z,4.55
2023-05-02T01:12:04.785Z,5.37
2023-05-02T01:14:42.681Z,5.30
2023-05-02T01:17:16.891Z,5.43
2023-05-02T01:19:55.369Z,4.57
2023-05-02T01:22:30.323Z,5.10
2023-05-02T01:25:14.703Z,5.50
2023-05-02T01:27:59.252Z,5.43
2023-05-02T01:30:34.125Z,4.83
2023-05-02T01:33:10.197Z,5.00
2023-05-02T01:35:44.176Z,4.63
2023-05-02T01:38:19.801Z,5.35
2023-05-02T01:40:54.783Z,5.37
2023-05-02T01:43:28.524Z,6.03
2023-05-02T01:46:04.430Z,6.00
2023-05-02T01:48:38.075Z,5.07
2023-05-02T01:51:13.254Z,5.50
2023-05-02T01:53:47.846Z,5.30
2023-05-02T01:56:22.667Z,4.80
2023-05-02T01:58:57.016Z,4.43
2023-05-02T02:01:31.379Z,5.17
2023-05-02T02:04:06.130Z,4.77
2023-05-02T02:06:38.736Z,5.13
2023-05-02T02:09:12.561Z,4.73
2023-05-02T02:11:49.381Z,5.03
2023-05-02T02:14:29.147Z,4.97
2023-05-02T02:17:08.117Z,5.43
2023-05-02T02:19:45.282Z,4.90
2023-05-02T02:22:20.347Z,5.10
2023-05-02T02:24:56.430Z,5.00
2023-05-02T02:27:30.636Z,4.40
2023-05-02T02:30:04.437Z,5.47
2023-05-02T02:32:36.942Z,4.75
2023-05-02T02:35:11.425Z,5.10
2023-05-02T02:37:49.089Z,4.70
2023-05-02T02:40:27.390Z,4.77
2023-05-02T02:43:09.540Z,5.23
2023-05-02T02:45:50.428Z,4.97
2023-05-02T02:48:35.901Z,5.30
2023-05-02T02:51:16.321Z,4.40
2023-05-02T02:53:59.567Z,5.10
2023-05-02T02:56:40.318Z,5.27
2023-05-02T02:59:20.613Z,4.47
2023-05-02T03:02:03.016Z,4.63
2023-05-02T03:04:39.669Z,5.67
2023-05-02T03:07:12.471Z,5.93
2023-05-02T03:09:46.896Z,5.17
2023-05-02T03:12:23.121Z,4.83
2023-05-02T03:14:59.002Z,4.73
2023-05-02T03:17:34.316Z,5.43
2023-05-02T03:20:07.936Z,5.37
2023-05-02T03:22:40.484Z,4.50
2023-05-02T03:25:13.446Z,4.33
2023-05-02T03:27:47.028Z,5.35
2023-05-02T03:30:21.695Z,5.30
2023-05-02T03:32:54.444Z,4.77
2023-05-02T03:35:30.493Z,4.80
2023-05-02T03:38:03.627Z,4.53
2023-05-02T03:40:39.143Z,5.23
2023-05-02T03:43:14.485Z,5.13
2023-05-02T03:45:48.679Z,5.27
2023-05-02T03:48:21.683Z,5.10
2023-05-02T03:50:55.813Z,5.80
2023-05-02T03:53:28.683Z,5.43
2023-05-02T03:56:02.630Z,5.42
2023-05-02T03:58:39.012Z,5.43
2023-05-02T04:01:18.350Z,4.77
2023-05-02T04:03:57.477Z,6.10
2023-05-02T04:06:33.379Z,6.23
2023-05-02T04:09:09.798Z,5.03
2023-05-02T04:11:48.351Z,5.03
2023-05-02T04:14:21.132Z,5.10
2023-05-02T04:16:57.315Z,4.75
2023-05-02T04:19:49.502Z,4.93
2023-05-02T04:22:24.941Z,4.53
2023-05-02T04:25:01.731Z,4.80
2023-05-02T04:27:35.653Z,5.00
2023-05-02T04:30:11.512Z,6.00
2023-05-02T04:32:44.767Z,5.40
2023-05-02T04:35:18.272Z,5.12
2023-05-02T04:37:52.025Z,5.33
2023-05-02T04:40:28.103Z,5.28
2023-05-02T04:43:06.427Z,5.07
2023-05-02T04:45:49.238Z,4.60
2023-05-02T04:48:30.179Z,5.10
2023-05-02T04:51:05.392Z,5.22
2023-05-02T04:53:38.481Z,5.13
2023-05-02T04:56:11.876Z,4.80
2023-05-02T04:58:45.571Z,5.10
2023-05-02T05:01:19.825Z,4.83
2023-05-02T05:03:53.079Z,4.63
2023-05-02T05:06:25.872Z,4.60
2023-05-02T05:09:02.763Z,4.67
2023-05-02T05:11:39.755Z,4.95
2023-05-02T05:14:13.458Z,4.90
2023-05-02T05:16:50.185Z,5.10
2023-05-02T05:21:53.940Z,5.10
2023-05-02T05:24:28.733Z,4.87
2023-05-02T05:27:03.081Z,4.73
2023-05-02T05:29:36.129Z,5.00
2023-05-02T05:32:09.457Z,4.60
2023-05-02T05:34:44.018Z,4.63
2023-05-02T05:37:17.408Z,4.80
2023-05-02T05:39:50.342Z,4.70
2023-05-02T05:42:23.278Z,4.83
2023-05-02T05:45:00.367Z,4.33
2023-05-02T05:47:33.735Z,5.10
2023-05-02T05:50:08.299Z,5.00
2023-05-02T05:52:41.290Z,4.77
2023-05-02T05:55:14.469Z,5.00
2023-05-02T05:57:47.310Z,4.60
2023-05-02T06:00:23.694Z,4.93
2023-05-02T06:02:56.766Z,4.87
2023-05-02T06:05:33.704Z,4.70
2023-05-02T06:08:06.598Z,5.30
2023-05-02T06:10:39.175Z,4.08
2023-05-02T06:13:12.063Z,4.40
2023-05-02T06:15:47.246Z,4.67
2023-05-02T06:18:19.844Z,4.60
2023-05-02T06:20:52.828Z,4.40
2023-05-02T06:23:26.424Z,4.90
2023-05-02T06:26:02.343Z,4.10
2023-05-02T06:28:34.712Z,4.33
2023-05-02T06:31:08.017Z,4.37
2023-05-02T06:33:40.873Z,4.17
2023-05-02T06:36:15.633Z,4.28
2023-05-02T06:38:49.918Z,3.80
2023-05-02T06:43:53.605Z,4.20
2023-05-02T06:46:30.082Z,4.30
2023-05-02T06:49:03.194Z,3.77
2023-05-02T06:51:35.578Z,3.60
2023-05-02T06:54:09.686Z,3.70
2023-05-02T06:56:41.964Z,3.53
2023-05-02T06:59:14.351Z,3.80
2023-05-02T07:01:46.905Z,3.23
2023-05-02T07:04:19.519Z,3.60
2023-05-02T07:06:52.251Z,3.17
2023-05-02T07:09:24.774Z,3.10
2023-05-02T07:11:57.087Z,3.13
2023-05-02T07:14:29.831Z,2.77
2023-05-02T07:17:02.523Z,2.80
2023-05-02T07:19:35.499Z,3.17
2023-05-02T07:22:08.220Z,2.90
2023-05-02T07:24:43.892Z,2.90
2023-05-02T07:27:16.484Z,2.93
2023-05-02T07:29:48.990Z,2.50
2023-05-02T07:32:22.031Z,2.60
2023-05-02T07:34:56.477Z,2.72
2023-05-02T07:37:34.400Z,2.60
2023-05-02T07:40:09.587Z,2.80
2023-05-02T07:42:42.299Z,2.43
2023-05-02T07:45:14.640Z,2.87
2023-05-02T07:47:47.835Z,2.80
2023-05-02T07:50:20.546Z,3.00
2023-05-02T07:52:52.912Z,2.70
2023-05-02T07:55:28.234Z,3.20
2023-05-02T07:58:00.654Z,2.90
2023-05-02T08:00:33.385Z,2.80
2023-05-02T08:03:08.261Z,2.93
2023-05-02T08:05:41.313Z,2.70
2023-05-02T08:08:13.620Z,2.80
2023-05-02T08:10:46.935Z,2.95
2023-05-02T08:13:19.647Z,2.70
2023-05-02T08:15:52.751Z,3.17
2023-05-02T08:18:25.603Z,3.50
2023-05-02T08:21:00.603Z,3.60
2023-05-02T08:23:33.027Z,3.20
2023-05-02T08:26:05.603Z,3.47
2023-05-02T08:28:39.223Z,3.30
2023-05-02T08:31:12.271Z,3.63
2023-05-02T08:33:44.918Z,2.83
2023-05-02T08:36:19.387Z,3.47
2023-05-02T08:39:01.190Z,3.30
2023-05-02T08:41:34.622Z,3.23
2023-05-02T08:44:09.627Z,2.87
2023-05-02T08:46:45.564Z,3.45
2023-05-02T08:49:19.781Z,3.10
2023-05-02T08:51:52.903Z,3.70
2023-05-02T08:54:27.461Z,3.50
2023-05-02T08:57:03.753Z,3.30
2023-05-02T08:59:36.116Z,3.13
2023-05-02T09:02:19.852Z,3.10
2023-05-02T09:04:57.194Z,3.33
2023-05-02T09:07:30.397Z,3.73
2023-05-02T09:10:02.727Z,3.33
2023-05-02T09:12:35.688Z,3.30
2023-05-02T09:15:20.001Z,3.60
2023-05-02T09:17:53.799Z,3.43
2023-05-02T09:20:26.324Z,3.70
2023-05-02T09:22:59.278Z,3.80
2023-05-02T09:25:39.733Z,3.77
2023-05-02T09:28:12.152Z,3.17
2023-05-02T09:30:44.714Z,3.50
2023-05-02T09:33:29.975Z,3.30
2023-05-02T09:36:02.558Z,3.67
2023-05-02T09:38:35.317Z,3.60
2023-05-02T09:41:07.872Z,3.83
2023-05-02T09:43:41.282Z,3.90
2023-05-02T09:46:14.596Z,3.50
2023-05-02T09:49:04.076Z,4.45
2023-05-02T09:51:37.309Z,3.73
2023-05-02T09:54:10.246Z,4.70
2023-05-02T09:56:58.823Z,3.77
2023-05-02T09:59:31.984Z,3.80
2023-05-02T10:02:07.380Z,4.12
2023-05-02T10:04:42.630Z,4.30
2023-05-02T10:07:17.849Z,3.70
2023-05-02T10:09:54.936Z,3.83
2023-05-02T10:12:31.013Z,4.33
2023-05-02T10:15:11.330Z,4.20
2023-05-02T10:17:49.416Z,4.30
2023-05-02T10:20:31.613Z,3.83
2023-05-02T10:23:04.660Z,4.20
2023-05-02T10:25:38.274Z,3.77
2023-05-02T10:28:11.267Z,3.75
2023-05-02T10:30:45.223Z,3.65
2023-05-02T10:33:20.238Z,4.10
2023-05-02T10:35:54.958Z,4.30
2023-05-02T10:38:28.328Z,4.47
2023-05-02T10:41:07.615Z,4.27
2023-05-02T10:43:41.360Z,4.57
2023-05-02T10:46:38.248Z,4.07
2023-05-02T10:49:11.723Z,4.83
2023-05-02T10:51:44.892Z,3.90
2023-05-02T10:54:25.933Z,4.22
2023-05-02T10:57:09.812Z,4.57
2023-05-02T10:59:43.521Z,4.90
2023-05-02T11:02:52.740Z,4.43
2023-05-02T11:05:27.390Z,4.60
2023-05-02T11:08:30.428Z,5.57
2023-05-02T11:11:43.136Z,5.00
2023-05-02T11:14:48.902Z,5.00
2023-05-02T11:17:21.767Z,5.30
2023-05-02T11:20:27.326Z,5.83
2023-05-02T11:23:17.475Z,5.40
2023-05-02T11:25:51.357Z,6.03
2023-05-02T11:28:46.083Z,6.13
2023-05-02T11:32:05.264Z,5.57
2023-05-02T11:34:45.836Z,5.70
2023-05-02T11:37:18.217Z,4.90
2023-05-02T11:39:51.788Z,5.67
2023-05-02T11:42:35.219Z,4.12
2023-05-02T11:45:09.126Z,4.50
2023-05-02T11:50:15.619Z,4.47
2023-05-02T11:52:48.972Z,4.77
2023-05-02T11:55:21.488Z,5.53
2023-05-02T11:57:54.237Z,5.20
2023-05-02T12:00:31.669Z,5.03
2023-05-02T12:03:04.660Z,5.17
2023-05-02T12:05:37.567Z,5.62
2023-05-02T12:08:19.775Z,7.67
2023-05-02T12:10:54.117Z,6.60
2023-05-02T12:13:28.967Z,6.73
2023-05-02T12:16:03.053Z,6.67
2023-05-02T12:18:36.866Z,6.13
2023-05-02T12:23:42.690Z,7.07
2023-05-02T12:26:26.093Z,6.50
2023-05-02T12:29:01.090Z,7.90
2023-05-02T12:31:33.869Z,5.93
2023-05-02T12:34:07.233Z,7.00
2023-05-02T12:36:47.093Z,6.40
2023-05-02T12:39:20.375Z,7.45
2023-05-02T12:41:52.911Z,6.10
2023-05-02T13:11:06.371Z,6.00
2023-05-02T13:13:35.516Z,4.57
2023-05-02T13:16:04.957Z,5.63
2023-05-02T13:18:34.316Z,5.87
2023-05-02T13:21:04.626Z,5.23
2023-05-02T13:23:33.392Z,5.37
2023-05-02T13:26:02.397Z,5.93
2023-05-02T13:28:32.824Z,5.40
2023-05-02T13:31:02.062Z,5.20
2023-05-02T13:33:31.027Z,5.30
2023-05-02T13:36:03.685Z,4.70
2023-05-02T13:38:33.598Z,4.73
2023-05-02T13:41:02.546Z,4.30
2023-05-02T13:43:31.797Z,5.33
2023-05-02T13:46:00.839Z,5.70
2023-05-02T13:48:31.650Z,4.67
2023-05-02T13:51:00.650Z,6.03
2023-05-02T13:53:30.340Z,5.40
2023-05-02T13:56:01.482Z,5.03
2023-05-02T13:58:30.612Z,4.43
2023-05-02T14:01:01.193Z,4.80
2023-05-02T14:03:30.635Z,5.60
2023-05-02T14:06:02.247Z,4.40
2023-05-02T14:08:34.323Z,4.20
2023-05-02T14:11:05.795Z,5.03
2023-05-02T14:13:36.418Z,5.17
2023-05-02T14:16:07.325Z,4.60
2023-05-02T14:18:36.344Z,5.43
2023-05-02T14:21:06.067Z,4.10
2023-05-02T14:23:35.481Z,3.83
2023-05-02T14:26:04.563Z,4.47
2023-05-02T14:28:33.559Z,4.33
2023-05-02T14:31:07.489Z,3.70
2023-05-02T14:33:36.507Z,4.33
2023-05-02T14:36:05.897Z,3.97
2023-05-02T14:38:34.947Z,4.60
2023-05-02T14:41:03.865Z,4.47
2023-05-02T14:43:32.912Z,4.90
2023-05-02T14:46:04.414Z,4.20
2023-05-02T14:48:33.313Z,4.30
2023-05-02T14:51:05.154Z,4.30
2023-05-02T14:53:34.137Z,5.30
2023-05-02T14:56:03.317Z,7.73
2023-05-02T14:58:32.269Z,6.30
2023-05-02T15:01:02.054Z,5.80
2023-05-02T15:03:31.161Z,8.53
2023-05-02T15:06:01.048Z,8.80
2023-05-02T15:08:31.419Z,6.75
2023-05-02T15:11:00.661Z,5.50
2023-05-02T15:13:30.915Z,4.63
2023-05-02T15:16:00.510Z,4.60
2023-05-02T15:18:30.316Z,3.63
2023-05-02T15:20:59.633Z,4.27
2023-05-02T15:23:30.435Z,3.63
2023-05-02T15:25:59.607Z,3.80
2023-05-02T15:28:28.751Z,3.93
2023-05-02T15:30:58.062Z,4.73
2023-05-02T15:33:32.354Z,4.07
2023-05-02T15:36:02.127Z,4.03
2023-05-02T15:38:33.581Z,3.60
2023-05-02T15:41:02.408Z,4.07
2023-05-02T15:43:31.676Z,3.70
2023-05-02T15:46:01.194Z,4.13
2023-05-02T15:48:33.049Z,3.63
2023-05-02T15:51:02.715Z,3.63
2023-05-02T15:53:32.147Z,4.20
2023-05-02T15:56:02.374Z,4.50
2023-05-02T15:58:31.436Z,4.23
2023-05-02T16:01:00.299Z,4.37
2023-05-02T16:03:31.932Z,7.77
2023-05-02T16:06:05.300Z,6.00
2023-05-02T16:08:34.411Z,4.78
2023-05-02T16:11:03.298Z,4.63
2023-05-02T16:13:32.370Z,3.95
2023-05-02T16:16:01.529Z,4.30
2023-05-02T16:18:30.784Z,9.70
2023-05-02T16:21:00.039Z,6.43
2023-05-02T16:23:31.513Z,6.77
2023-05-02T16:26:01.319Z,5.00
2023-05-02T16:28:30.630Z,4.23
2023-05-02T16:31:05.012Z,6.70
2023-05-02T16:33:34.123Z,7.50
2023-05-02T16:36:03.927Z,5.93
2023-05-02T16:38:35.890Z,6.67
2023-05-02T16:41:06.475Z,4.60
2023-05-02T16:43:37.687Z,5.63
2023-05-02T16:46:07.479Z,7.30
2023-05-02T16:48:36.639Z,5.50
2023-05-02T16:51:06.369Z,6.57
2023-05-02T16:53:35.325Z,7.00
2023-05-02T16:56:05.609Z,9.70
2023-05-02T16:58:34.978Z,7.40
2023-05-02T17:01:04.951Z,11.33
2023-05-02T17:03:33.922Z,5.43
2023-05-02T17:06:04.604Z,5.00
2023-05-02T17:08:33.560Z,4.83
2023-05-02T17:11:02.556Z,6.10
2023-05-02T17:13:32.278Z,6.13
2023-05-02T17:16:02.989Z,6.20
2023-05-02T17:18:33.783Z,5.33
2023-05-02T17:21:03.962Z,5.25
2023-05-02T17:23:34.070Z,5.40
2023-05-02T17:26:13.518Z,5.80
2023-05-02T17:28:43.852Z,5.37
2023-05-02T17:31:13.286Z,5.73
2023-05-02T17:33:42.416Z,5.03
2023-05-02T17:36:11.730Z,4.77
2023-05-02T17:38:41.378Z,5.27
2023-05-02T17:41:10.441Z,4.27
2023-05-02T17:43:41.965Z,4.73
2023-05-02T17:46:11.034Z,4.10
2023-05-02T17:48:43.710Z,4.70
2023-05-02T17:51:12.896Z,4.50
2023-05-02T17:53:42.058Z,4.07
2023-05-02T17:56:12.409Z,4.67
2023-05-02T17:58:41.308Z,4.10
2023-05-02T18:01:11.821Z,3.97
2023-05-02T18:03:41.421Z,4.50
2023-05-02T18:06:16.563Z,4.10
2023-05-02T18:08:45.977Z,4.33
2023-05-02T18:11:16.411Z,4.10
2023-05-02T18:13:46.180Z,5.00
2023-05-02T18:16:16.621Z,4.13
2023-05-02T18:18:45.683Z,4.37
2023-05-02T18:21:22.051Z,4.77
2023-05-02T18:23:51.114Z,5.13
2023-05-02T18:26:20.384Z,4.27
2023-05-02T18:28:52.716Z,5.47
2023-05-02T18:31:21.980Z,4.93
2023-05-02T18:33:53.128Z,5.53
2023-05-02T18:36:26.675Z,5.63
2023-05-02T18:38:57.184Z,6.50
2023-05-02T18:41:26.435Z,6.67
2023-05-02T18:43:58.537Z,6.50
2023-05-02T18:46:31.074Z,6.63
2023-05-02T18:49:02.653Z,7.53
2023-05-02T18:51:31.683Z,8.00
2023-05-02T18:54:00.719Z,8.73
2023-05-02T18:56:30.091Z,8.00
2023-05-02T18:58:59.710Z,7.87
2023-05-02T19:01:28.899Z,7.17
2023-05-02T19:04:00.497Z,6.40
2023-05-02T19:06:30.972Z,5.73
2023-05-02T19:09:00.312Z,5.40
2023-05-02T19:11:30.658Z,5.27
2023-05-02T19:14:02.830Z,5.35
2023-05-02T19:16:33.192Z,4.95
2023-05-02T19:19:03.766Z,4.53
2023-05-02T19:21:33.685Z,4.70
2023-05-02T19:24:03.286Z,5.13
2023-05-02T19:26:32.523Z,5.20
2023-05-02T19:29:01.968Z,5.90
2023-05-02T19:31:31.103Z,5.93
2023-05-02T19:34:00.338Z,4.80
2023-05-02T19:36:32.280Z,5.37
2023-05-02T19:39:01.346Z,5.20
2023-05-02T19:41:30.808Z,4.50
2023-05-02T19:44:00.656Z,5.30
2023-05-02T19:46:30.753Z,5.97
2023-05-02T19:49:00.456Z,5.50
2023-05-02T19:51:34.101Z,6.07
2023-05-02T19:54:03.116Z,5.75
2023-05-02T19:56:32.190Z,6.33
2023-05-02T19:59:01.397Z,7.27
2023-05-02T20:01:32.491Z,6.00
2023-05-02T20:04:02.976Z,6.03
2023-05-02T20:06:32.850Z,5.97
2023-05-02T20:09:02.080Z,6.70
2023-05-02T20:11:32.320Z,6.17
2023-05-02T20:14:02.510Z,6.57
2023-05-02T20:16:32.181Z,6.57
2023-05-02T20:19:01.388Z,5.87
2023-05-02T20:21:30.976Z,6.17
2023-05-02T20:24:00.044Z,6.83
2023-05-02T20:26:30.793Z,6.37
2023-05-02T20:29:00.286Z,6.50
2023-05-02T20:31:30.464Z,6.30
2023-05-02T20:34:00.258Z,5.87
2023-05-02T20:36:30.549Z,5.67
2023-05-02T20:38:59.418Z,5.77
2023-05-02T20:41:31.767Z,5.53
2023-05-02T20:44:02.295Z,5.40
2023-05-02T20:46:31.654Z,5.27
2023-05-02T20:49:01.770Z,5.33
2023-05-02T20:51:31.255Z,5.63
2023-05-02T20:54:00.412Z,5.63
2023-05-02T20:56:30.138Z,5.10
2023-05-02T20:58:59.464Z,5.23
2023-05-02T21:01:29.073Z,5.63
2023-05-02T21:03:58.067Z,5.37
2023-05-02T21:06:30.781Z,6.27
2023-05-02T21:09:01.294Z,5.23
2023-05-02T21:11:31.331Z,5.73
2023-05-02T21:14:00.386Z,4.53
2023-05-02T21:16:30.179Z,4.43
2023-05-02T21:18:59.389Z,4.87
2023-05-02T21:21:28.958Z,4.93
2023-05-02T21:23:58.250Z,4.27
2023-05-02T21:26:27.386Z,5.67
2023-05-02T21:28:56.908Z,5.30
2023-05-02T21:31:26.134Z,5.47
2023-05-02T21:33:55.515Z,6.10
2023-05-02T21:36:24.622Z,5.63
2023-05-02T21:38:53.805Z,5.60
2023-05-02T21:41:22.684Z,5.77
2023-05-02T21:43:52.402Z,5.57
2023-05-02T21:46:21.373Z,5.40
2023-05-02T21:48:53.979Z,5.47
2023-05-02T21:51:23.494Z,5.13
2023-05-02T21:53:53.550Z,5.67
2023-05-02T21:56:22.412Z,4.27
2023-05-02T21:58:52.646Z,4.97
2023-05-02T22:01:21.694Z,4.63
2023-05-02T22:03:54.900Z,4.50
2023-05-02T22:06:24.601Z,6.37
2023-05-02T22:08:54.271Z,5.03
2023-05-02T22:11:23.768Z,4.60
2023-05-02T22:13:52.912Z,3.35
2023-05-02T22:16:21.890Z,4.13
2023-05-02T22:18:57.484Z,4.50
2023-05-02T22:21:26.867Z,3.97
2023-05-02T22:23:56.702Z,3.67
2023-05-02T22:26:29.168Z,3.50
2023-05-02T22:28:57.965Z,4.27
2023-05-02T22:31:28.875Z,3.97
2023-05-02T22:33:57.759Z,4.10
2023-05-02T22:36:28.955Z,4.10
2023-05-02T22:38:57.909Z,3.60
2023-05-02T22:41:26.796Z,3.70
2023-05-02T22:43:56.202Z,3.17
2023-05-02T22:46:25.187Z,3.47
2023-05-02T22:48:57.308Z,3.90
2023-05-02T22:51:26.846Z,3.47
2023-05-02T22:53:56.925Z,3.50
2023-05-02T22:56:26.693Z,3.07
2023-05-02T22:58:57.652Z,3.43
2023-05-02T23:01:28.248Z,3.47
2023-05-02T23:03:57.419Z,2.90
2023-05-02T23:06:28.700Z,3.03
2023-05-02T23:08:57.692Z,2.83
2023-05-02T23:11:26.598Z,3.20
2023-05-02T23:13:58.093Z,3.13
2023-05-02T23:16:26.886Z,2.97
2023-05-02T23:18:57.098Z,3.20
2023-05-02T23:21:26.084Z,2.80
2023-05-02T23:23:55.079Z,3.33
2023-05-02T23:26:23.966Z,3.07
2023-05-02T23:28:52.905Z,2.83
2023-05-02T23:31:21.971Z,3.07
2023-05-02T23:33:57.921Z,3.67
2023-05-02T23:36:27.304Z,3.60
2023-05-02T23:38:57.201Z,3.87
2023-05-02T23:41:26.443Z,3.27
2023-05-02T23:43:57.860Z,4.23
2023-05-02T23:46:27.078Z,4.00
2023-05-02T23:48:56.757Z,3.30
2023-05-02T23:51:29.962Z,3.80
2023-05-02T23:53:59.176Z,3.70
2023-05-02T23:56:28.477Z,3.60
2023-05-02T23:58:57.393Z,3.70
